Cortland, IL

8:51 AM CST on February 24, 2017 (GMT -0600)
De Kalb Taylor Municipal

Weather History for KDKB - October, 2011

Change the Weather History Date:

Thursday, October 20, 2011

  Actual Average (KARR) Record (KARR)
Temperature  
Mean Temperature 44 °F -  
Max Temperature 46 °F 58 °F 84 °F (2003)
Min Temperature 41 °F 36 °F 25 °F (2002)
Degree Days  
Heating Degree Days 22    
Moisture  
Dew Point 35 °F    
Average Humidity 73    
Maximum Humidity 81    
Minimum Humidity 62    
Precipitation  
Precipitation 0.00 in - - ()
Sea Level Pressure  
Sea Level Pressure 29.65 in    
Wind  
Wind Speed 18 mph (NW)    
Max Wind Speed 25 mph    
Max Gust Speed 36 mph    
Visibility 10 miles    
Events Rain    
Averages and records for this station are not official NWS values.
T = Trace of Precipitation, MM = Missing Value Source: NWS Daily Summary

Daily Weather History Graph

Daily Weather History Graph

Search for Another Location

Airport or City:

Trip Planner

Search our weather history database for the weather conditions in past years. The results will help you decide how hot, cold, wet, or windy it might be!

Date:

Astronomy

Oct. 20, 2011 Rise Set
Actual Time 7:12 AM CDT 6:05 PM CDT
Civil Twilight 6:44 AM CDT 6:34 PM CDT
Nautical Twilight 6:11 AM CDT 7:06 PM CDT
Astronomical Twilight 5:39 AM CDT 7:38 PM CDT
Moon No Moon Rise 2:20 PM CDT (10/20)
Length of Visible Light 11h 49m
Length of Day
10h 53m
Last Quarter, 44% of the Moon is Illuminated
Oct 20
Last Quarter
Oct 26
New
Nov 2
First Quarter
Nov 10
Full
Nov 18
Last Quarter

Hourly Weather History & Observations

Time (CDT) Temp. Windchill Dew Point Humidity Pressure Visibility Wind Dir Wind Speed Gust Speed Precip Events Conditions
12:15 AM 42.8 °F 34.5 °F 37.4 °F 81% 29.59 in 10.0 mi NNW 18.4 mph 33.4 mph N/A   Drizzle
12:35 AM 42.8 °F 34.5 °F 37.4 °F 81% 29.59 in 10.0 mi NNW 18.4 mph 28.8 mph N/A   Drizzle
12:55 AM 42.8 °F 33.1 °F 37.4 °F 81% 29.58 in 10.0 mi NNW 25.3 mph 33.4 mph N/A   Overcast
1:15 AM 42.8 °F 33.3 °F 37.4 °F 81% 29.58 in 10.0 mi NNW 24.2 mph 35.7 mph N/A   Overcast
1:35 AM 42.8 °F 33.8 °F 35.6 °F 76% 29.58 in 10.0 mi NNW 21.9 mph 33.4 mph N/A   Overcast
1:55 AM 42.8 °F 33.5 °F 35.6 °F 76% 29.58 in 10.0 mi NNW 23.0 mph 34.5 mph N/A   Overcast
2:15 AM 42.8 °F 34.5 °F 35.6 °F 76% 29.58 in 10.0 mi NNW 18.4 mph 33.4 mph N/A   Light Drizzle
2:35 AM 42.8 °F 34.0 °F 35.6 °F 76% 29.57 in 10.0 mi NNW 20.7 mph 33.4 mph N/A   Overcast
3:15 AM 41.0 °F 31.4 °F 35.6 °F 81% 29.57 in 10.0 mi NNW 21.9 mph 35.7 mph N/A   Overcast
3:35 AM 41.0 °F 31.9 °F 33.8 °F 76% 29.57 in 10.0 mi NNW 19.6 mph 29.9 mph N/A   Overcast
3:55 AM 41.0 °F 32.5 °F 33.8 °F 76% 29.57 in 10.0 mi NNW 17.3 mph 32.2 mph N/A   Overcast
4:15 AM 41.0 °F 30.9 °F 33.8 °F 76% 29.56 in 10.0 mi NNW 24.2 mph 31.1 mph N/A   Overcast
4:35 AM 41.0 °F 31.6 °F 33.8 °F 76% 29.56 in 10.0 mi NNW 20.7 mph 34.5 mph N/A   Overcast
4:55 AM 41.0 °F 31.9 °F 33.8 °F 76% 29.56 in 10.0 mi NNW 19.6 mph 33.4 mph N/A   Overcast
5:15 AM 41.0 °F 31.6 °F 33.8 °F 76% 29.56 in 10.0 mi NNW 20.7 mph 27.6 mph N/A   Overcast
5:35 AM 41.0 °F 32.5 °F 33.8 °F 76% 29.56 in 10.0 mi NNW 17.3 mph 28.8 mph N/A   Overcast
5:55 AM 41.0 °F 31.9 °F 35.6 °F 81% 29.57 in 10.0 mi NNW 19.6 mph 27.6 mph N/A   Light Drizzle
6:15 AM 41.0 °F 32.5 °F 35.6 °F 81% 29.57 in 10.0 mi NNW 17.3 mph 27.6 mph N/A Rain Light Rain
6:35 AM 41.0 °F 32.5 °F 35.6 °F 81% 29.58 in 10.0 mi NNW 17.3 mph 27.6 mph N/A   Light Drizzle
6:55 AM 41.0 °F 33.1 °F 35.6 °F 81% 29.58 in 10.0 mi NNW 15.0 mph 29.9 mph N/A Rain Light Rain
7:15 AM 41.0 °F 31.9 °F 35.6 °F 81% 29.59 in 10.0 mi NNW 19.6 mph 26.5 mph N/A   Light Drizzle
7:35 AM 41.0 °F 32.5 °F 35.6 °F 81% 29.59 in 10.0 mi NNW 17.3 mph 27.6 mph N/A   Overcast
7:55 AM 41.0 °F 33.1 °F 35.6 °F 81% 29.60 in 10.0 mi NNW 15.0 mph 28.8 mph N/A   Overcast
8:15 AM 42.8 °F 34.8 °F 35.6 °F 76% 29.60 in 10.0 mi NW 17.3 mph 25.3 mph N/A   Overcast
8:35 AM 42.8 °F 35.4 °F 35.6 °F 76% 29.61 in 10.0 mi NW 15.0 mph 24.2 mph N/A   Overcast
8:55 AM 42.8 °F 34.8 °F 35.6 °F 76% 29.61 in 10.0 mi NW 17.3 mph 28.8 mph N/A   Overcast
9:15 AM 42.8 °F 35.8 °F 35.6 °F 76% 29.62 in 10.0 mi NW 13.8 mph 23.0 mph N/A   Overcast
9:35 AM 42.8 °F 35.4 °F 35.6 °F 76% 29.62 in 10.0 mi NW 15.0 mph 26.5 mph N/A   Overcast
9:55 AM 42.8 °F 35.1 °F 35.6 °F 76% 29.63 in 10.0 mi NW 16.1 mph 25.3 mph N/A   Overcast
10:15 AM 42.8 °F 34.5 °F 35.6 °F 76% 29.64 in 10.0 mi NW 18.4 mph 25.3 mph N/A   Overcast
10:35 AM 42.8 °F 35.8 °F 35.6 °F 76% 29.64 in 10.0 mi NW 13.8 mph 27.6 mph N/A   Overcast
10:55 AM 42.8 °F 35.4 °F 35.6 °F 76% 29.65 in 10.0 mi NW 15.0 mph 24.2 mph N/A   Overcast
11:15 AM 42.8 °F 35.4 °F 35.6 °F 76% 29.65 in 10.0 mi NW 15.0 mph 26.5 mph N/A   Overcast
11:35 AM 42.8 °F 35.1 °F 35.6 °F 76% 29.66 in 10.0 mi NW 16.1 mph 24.2 mph N/A   Overcast
11:55 AM 42.8 °F 34.3 °F 35.6 °F 76% 29.66 in 10.0 mi NW 19.6 mph 27.6 mph N/A   Overcast
12:15 PM 42.8 °F 35.8 °F 35.6 °F 76% 29.67 in 10.0 mi NW 13.8 mph 25.3 mph N/A   Overcast
12:35 PM 42.8 °F 35.1 °F 33.8 °F 70% 29.68 in 10.0 mi NW 16.1 mph 23.0 mph N/A   Overcast
12:55 PM 42.8 °F 35.8 °F 33.8 °F 70% 29.68 in 10.0 mi NW 13.8 mph 24.2 mph N/A   Overcast
1:15 PM 42.8 °F 34.5 °F 33.8 °F 70% 29.68 in 10.0 mi NW 18.4 mph 25.3 mph N/A   Overcast
1:35 PM 44.6 °F 38.1 °F 33.8 °F 66% 29.69 in 10.0 mi NW 13.8 mph 25.3 mph N/A   Overcast
1:55 PM 44.6 °F 37.8 °F 33.8 °F 66% 29.70 in 10.0 mi NW 15.0 mph 20.7 mph N/A   Overcast
2:15 PM 44.6 °F 38.4 °F 33.8 °F 66% 29.70 in 10.0 mi NW 12.7 mph 24.2 mph N/A   Overcast
2:35 PM 44.6 °F 37.2 °F 33.8 °F 66% 29.70 in 10.0 mi NW 17.3 mph 26.5 mph N/A   Overcast
2:55 PM 46.4 °F 40.1 °F 33.8 °F 62% 29.71 in 10.0 mi NW 15.0 mph 20.7 mph N/A   Overcast
3:15 PM 46.4 °F 40.1 °F 33.8 °F 62% 29.72 in 10.0 mi NW 15.0 mph 21.9 mph N/A   Overcast
3:35 PM 46.4 °F 40.4 °F 35.6 °F 66% 29.72 in 10.0 mi NW 13.8 mph 19.6 mph N/A   Overcast
3:55 PM 46.4 °F 40.1 °F 33.8 °F 62% 29.73 in 10.0 mi NW 15.0 mph 21.9 mph N/A   Overcast
4:15 PM 46.4 °F 39.8 °F 33.8 °F 62% 29.74 in 10.0 mi NW 16.1 mph 20.7 mph N/A   Overcast
4:35 PM 46.4 °F 41.5 °F 33.8 °F 62% 29.75 in 10.0 mi NW 10.4 mph 19.6 mph N/A   Overcast
4:55 PM 46.4 °F 42.4 °F 33.8 °F 62% 29.75 in 10.0 mi NW 8.1 mph 16.1 mph N/A   Overcast
5:15 PM 46.4 °F 42.9 °F 35.6 °F 66% 29.76 in 10.0 mi NW 6.9 mph - N/A   Overcast
5:35 PM 46.4 °F 42.4 °F 35.6 °F 66% 29.77 in 10.0 mi WNW 8.1 mph - N/A   Overcast
5:55 PM 46.4 °F 41.9 °F 35.6 °F 66% 29.78 in 10.0 mi WNW 9.2 mph - N/A   Overcast
6:15 PM 46.4 °F 42.4 °F 35.6 °F 66% 29.79 in 10.0 mi WNW 8.1 mph - N/A   Overcast
6:35 PM 46.4 °F 43.5 °F 35.6 °F 66% 29.80 in 10.0 mi NW 5.8 mph - N/A   Overcast
6:55 PM 46.4 °F 42.9 °F 35.6 °F 66% 29.81 in 10.0 mi NW 6.9 mph - N/A   Overcast
7:15 PM 46.4 °F 45.2 °F 35.6 °F 66% 29.81 in 10.0 mi NW 3.5 mph - N/A   Overcast
7:35 PM 44.6 °F 43.1 °F 35.6 °F 71% 29.82 in 10.0 mi WNW 3.5 mph - N/A   Overcast
7:55 PM 44.6 °F 43.1 °F 35.6 °F 71% 29.82 in 10.0 mi WNW 3.5 mph - N/A   Overcast
8:15 PM 44.6 °F 40.7 °F 35.6 °F 71% 29.83 in 10.0 mi West 6.9 mph - N/A   Overcast
8:35 PM 46.4 °F 44.3 °F 35.6 °F 66% 29.83 in 10.0 mi WNW 4.6 mph - N/A   Overcast
8:55 PM 42.8 °F 40.1 °F 35.6 °F 76% 29.83 in 10.0 mi West 4.6 mph - N/A   Scattered Clouds
9:15 PM 44.6 °F 42.2 °F 35.6 °F 71% 29.84 in 10.0 mi WNW 4.6 mph - N/A   Mostly Cloudy
9:35 PM 44.6 °F 42.2 °F 35.6 °F 71% 29.85 in 10.0 mi WNW 4.6 mph - N/A   Mostly Cloudy
9:55 PM 44.6 °F 41.4 °F 35.6 °F 71% 29.86 in 10.0 mi WNW 5.8 mph - N/A   Scattered Clouds
10:15 PM 44.6 °F 41.4 °F 35.6 °F 71% 29.86 in 10.0 mi NW 5.8 mph - N/A   Scattered Clouds
10:35 PM 42.8 °F 40.1 °F 35.6 °F 76% 29.87 in 10.0 mi WNW 4.6 mph - N/A   Clear
10:55 PM 44.6 °F 42.2 °F 35.6 °F 71% 29.88 in 10.0 mi NNW 4.6 mph - N/A   Clear
11:15 PM 44.6 °F 40.7 °F 35.6 °F 71% 29.88 in 10.0 mi NNW 6.9 mph - N/A   Clear
11:35 PM 42.8 °F 39.3 °F 35.6 °F 76% 29.89 in 10.0 mi NNW 5.8 mph - N/A   Clear
11:55 PM 42.8 °F 38.0 °F 35.6 °F 76% 29.90 in 10.0 mi NNW 8.1 mph - N/A   Clear